Time;durP1;ratioP1;P1;durP2;ratioP2;P2;SDS_P1;SDS_P2;PMS_P1;PMS_P2;Temp;Humidity;BMP_temperature;BMP_pressure;BME280_temperature;BME280_humidity;BME280_pressure;Samples;Min_cycle;Max_cycle;Signal;HPM_P1;HPM_P2
2022/04/08 00:01:30;;;;;;;7.80;1.83;;;7.00;83.40;;;;;;5095518;28;20016;-72
2022/04/08 00:03:56;;;;;;;7.25;1.48;;;7.10;83.40;;;;;;5092567;28;20067;-71
2022/04/08 00:06:22;;;;;;;7.68;2.00;;;7.00;83.30;;;;;;5084721;28;20020;-71
2022/04/08 00:08:49;;;;;;;7.43;1.63;;;7.00;83.40;;;;;;5091931;28;20024;-71
2022/04/08 00:11:14;;;;;;;3.95;1.20;;;7.10;83.40;;;;;;5083107;28;20119;-72
2022/04/08 00:13:40;;;;;;;6.90;1.55;;;7.10;83.30;;;;;;5087789;28;20112;-72
2022/04/08 00:16:09;;;;;;;6.18;1.65;;;7.10;83.20;;;;;;5085499;28;20048;-72
2022/04/08 00:18:37;;;;;;;6.25;1.60;;;7.10;83.10;;;;;;5091794;28;20032;-69
2022/04/08 00:21:03;;;;;;;5.18;1.63;;;7.10;83.10;;;;;;5085527;28;20032;-70
2022/04/08 00:23:29;;;;;;;5.50;1.48;;;7.10;83.00;;;;;;5089601;28;20112;-71
2022/04/08 00:25:55;;;;;;;6.13;1.88;;;7.10;82.90;;;;;;5093778;28;20074;-71
2022/04/08 00:28:20;;;;;;;4.30;1.40;;;7.10;82.80;;;;;;5089748;28;20020;-71
2022/04/08 00:30:46;;;;;;;4.70;1.25;;;7.20;82.70;;;;;;5085876;28;20032;-70
2022/04/08 00:33:11;;;;;;;6.50;1.40;;;7.20;82.60;;;;;;5095200;28;20106;-72
2022/04/08 00:35:37;;;;;;;3.05;1.00;;;7.20;82.50;;;;;;5087157;28;20028;-70
2022/04/08 00:38:02;;;;;;;5.50;1.40;;;7.20;82.50;;;;;;5088222;28;20091;-70
2022/04/08 00:40:28;;;;;;;6.20;1.50;;;7.10;82.30;;;;;;5089822;28;20543;-71
2022/04/08 00:42:54;;;;;;;5.47;1.20;;;7.10;82.30;;;;;;5112209;28;20154;-71
2022/04/08 00:45:20;;;;;;;5.57;1.77;;;7.10;82.10;;;;;;5090574;28;20074;-72
2022/04/08 00:47:45;;;;;;;4.57;1.50;;;7.00;81.90;;;;;;5087117;28;20024;-71
2022/04/08 00:50:12;;;;;;;6.47;1.70;;;7.00;82.00;;;;;;5087938;28;20032;-71
2022/04/08 00:52:42;;;;;;;4.93;1.50;;;7.00;82.00;;;;;;5091327;28;20020;-71
2022/04/08 00:55:08;;;;;;;4.40;1.42;;;7.10;81.80;;;;;;5085916;28;20028;-71
2022/04/08 00:57:34;;;;;;;4.82;1.48;;;7.00;81.70;;;;;;5090228;28;20263;-71
2022/04/08 01:00:07;;;;;;;4.63;1.45;;;7.00;81.70;;;;;;5082707;28;20028;-71
2022/04/08 01:02:33;;;;;;;4.32;1.60;;;7.10;81.60;;;;;;5091357;28;20386;-70
2022/04/08 01:04:58;;;;;;;4.88;1.73;;;7.00;81.10;;;;;;5102614;28;20036;-69
2022/04/08 01:07:24;;;;;;;8.52;2.08;;;7.00;80.90;;;;;;5091332;28;20031;-71
2022/04/08 01:09:51;;;;;;;6.85;1.70;;;7.00;80.60;;;;;;5090736;28;20103;-71
2022/04/08 01:12:17;;;;;;;7.70;1.90;;;7.00;80.50;;;;;;5082123;28;20029;-71
2022/04/08 01:14:42;;;;;;;7.30;1.52;;;7.00;81.20;;;;;;5088325;28;20474;-71
2022/04/08 01:17:08;;;;;;;5.47;1.77;;;7.00;80.30;;;;;;5088076;28;20395;-71
2022/04/08 01:19:33;;;;;;;5.53;1.50;;;6.90;80.40;;;;;;5083452;28;20043;-75
2022/04/08 01:21:59;;;;;;;5.95;1.50;;;7.00;80.50;;;;;;5079519;28;20016;-71
2022/04/08 01:24:27;;;;;;;7.93;1.70;;;6.90;80.40;;;;;;5089946;28;20062;-71
2022/04/08 01:26:52;;;;;;;7.43;1.80;;;6.90;80.40;;;;;;5090121;28;20035;-71
2022/04/08 01:29:18;;;;;;;7.60;1.50;;;6.90;80.40;;;;;;5095563;28;20028;-72
2022/04/08 01:31:45;;;;;;;6.88;1.55;;;6.90;80.50;;;;;;5090822;28;20040;-72
2022/04/08 01:34:11;;;;;;;6.10;2.03;;;6.80;80.40;;;;;;5086192;28;20115;-72
2022/04/08 01:36:37;;;;;;;6.47;2.00;;;6.70;81.00;;;;;;5087726;28;20029;-71
2022/04/08 01:39:04;;;;;;;7.57;2.13;;;6.80;80.20;;;;;;5090559;28;20092;-72
2022/04/08 01:41:31;;;;;;;8.77;1.98;;;6.70;80.10;;;;;;5085820;28;20428;-70
2022/04/08 01:43:59;;;;;;;6.53;1.92;;;6.70;80.10;;;;;;5099172;28;20016;-71
2022/04/08 01:46:24;;;;;;;7.03;2.22;;;6.60;80.10;;;;;;5091858;28;20060;-71
2022/04/08 01:48:54;;;;;;;6.43;1.63;;;6.60;80.00;;;;;;5099140;28;20454;-71
2022/04/08 01:51:21;;;;;;;8.70;1.60;;;6.60;80.10;;;;;;5091815;28;20035;-71
2022/04/08 01:53:47;;;;;;;6.47;1.85;;;6.50;80.10;;;;;;5092348;28;20020;-70
2022/04/08 01:56:13;;;;;;;7.07;1.60;;;6.50;79.90;;;;;;5094007;28;20420;-69
2022/04/08 01:58:39;;;;;;;4.97;1.30;;;6.50;80.00;;;;;;5093855;27;20032;-69
2022/04/08 02:01:04;;;;;;;6.45;1.60;;;6.40;79.90;;;;;;5094051;28;20024;-68
2022/04/08 02:03:30;;;;;;;8.55;1.85;;;6.40;79.90;;;;;;5092030;28;20213;-69
2022/04/08 02:05:55;;;;;;;6.55;1.70;;;6.40;80.00;;;;;;5094348;28;20095;-68
2022/04/08 02:08:21;;;;;;;6.60;1.90;;;6.30;80.00;;;;;;5092050;28;20035;-69
2022/04/08 02:10:46;;;;;;;5.50;1.42;;;6.30;80.00;;;;;;5090676;28;20051;-68
2022/04/08 02:13:12;;;;;;;7.60;1.65;;;6.30;80.00;;;;;;5086534;28;20035;-69
2022/04/08 02:15:38;;;;;;;5.45;1.50;;;6.30;79.90;;;;;;5090414;28;20492;-69
2022/04/08 02:18:04;;;;;;;7.78;1.60;;;6.30;80.00;;;;;;5093093;28;20035;-69
2022/04/08 02:20:31;;;;;;;6.68;1.67;;;6.20;80.00;;;;;;5090472;28;20517;-69
2022/04/08 02:22:58;;;;;;;6.70;1.70;;;6.20;80.00;;;;;;5089818;28;20537;-70
2022/04/08 02:25:25;;;;;;;7.13;1.60;;;6.20;80.00;;;;;;5088984;28;20024;-71
2022/04/08 02:27:51;;;;;;;6.88;1.70;;;6.20;80.00;;;;;;5088939;28;20024;-71
2022/04/08 02:30:17;;;;;;;5.85;1.60;;;6.10;80.00;;;;;;5093553;28;20116;-71
2022/04/08 02:32:42;;;;;;;7.25;1.80;;;6.20;80.10;;;;;;5082099;28;20512;-71
2022/04/08 02:35:09;;;;;;;9.18;1.60;;;6.10;80.10;;;;;;5098443;28;20406;-71
2022/04/08 02:37:34;;;;;;;6.93;1.50;;;6.10;80.20;;;;;;5085403;28;20394;-71
2022/04/08 02:40:00;;;;;;;5.70;1.67;;;6.10;80.20;;;;;;5090949;28;20046;-69
2022/04/08 02:42:30;;;;;;;7.25;1.77;;;6.10;80.80;;;;;;5088979;28;20410;-71
2022/04/08 02:44:56;;;;;;;8.20;1.73;;;6.00;80.30;;;;;;5088949;28;20016;-70
2022/04/08 02:47:21;;;;;;;7.03;1.75;;;6.00;80.30;;;;;;5091463;28;20031;-71
2022/04/08 02:49:47;;;;;;;7.13;1.95;;;6.00;80.40;;;;;;5095208;28;20035;-71
2022/04/08 02:52:12;;;;;;;6.55;1.80;;;6.00;80.40;;;;;;5092423;28;20024;-71
2022/04/08 02:54:38;;;;;;;9.38;2.22;;;5.90;80.50;;;;;;5091346;28;20054;-69
2022/04/08 02:57:03;;;;;;;6.63;1.90;;;6.00;80.50;;;;;;5084386;28;20733;-69
2022/04/08 02:59:29;;;;;;;6.25;1.63;;;6.00;80.50;;;;;;5089174;28;20028;-69
2022/04/08 03:01:54;;;;;;;8.15;1.95;;;6.00;80.50;;;;;;5089352;28;20043;-69
2022/04/08 03:04:20;;;;;;;7.85;1.80;;;5.90;80.50;;;;;;5090577;28;20059;-69
2022/04/08 03:06:45;;;;;;;9.88;2.15;;;5.90;80.50;;;;;;5089086;28;20363;-69
2022/04/08 03:09:11;;;;;;;7.35;1.75;;;6.00;80.50;;;;;;5090554;28;20031;-71
2022/04/08 03:11:37;;;;;;;10.68;1.75;;;6.00;80.50;;;;;;5095570;28;20092;-71
2022/04/08 03:14:04;;;;;;;11.25;2.20;;;6.10;80.40;;;;;;5089954;28;20024;-70
2022/04/08 03:16:30;;;;;;;7.78;1.92;;;6.10;80.40;;;;;;5085358;28;20479;-71
2022/04/08 03:18:56;;;;;;;5.68;1.90;;;6.00;80.20;;;;;;5083663;28;20433;-71
2022/04/08 03:21:22;;;;;;;10.68;2.05;;;6.10;80.30;;;;;;5089614;28;20048;-71
2022/04/08 03:23:48;;;;;;;8.85;1.88;;;6.10;80.00;;;;;;5090597;28;20023;-71
2022/04/08 03:26:14;;;;;;;4.93;1.98;;;6.10;79.90;;;;;;5087018;28;20120;-71
2022/04/08 03:28:39;;;;;;;8.23;1.75;;;6.10;80.00;;;;;;5086738;28;20100;-69
2022/04/08 03:31:05;;;;;;;6.63;1.88;;;6.00;79.60;;;;;;5102701;28;20020;-70
2022/04/08 03:33:30;;;;;;;6.05;1.65;;;6.00;79.50;;;;;;5091670;28;20032;-70
2022/04/08 03:35:56;;;;;;;3.17;1.10;;;6.00;79.40;;;;;;5092121;28;20028;-70
2022/04/08 03:38:22;;;;;;;3.78;1.20;;;6.00;79.40;;;;;;5087506;28;20035;-71
2022/04/08 03:40:48;;;;;;;5.70;1.50;;;6.00;79.30;;;;;;5090010;28;20098;-70
2022/04/08 03:43:13;;;;;;;4.57;1.25;;;6.00;79.20;;;;;;5090176;28;20017;-70
2022/04/08 03:45:39;;;;;;;5.10;1.48;;;6.00;79.30;;;;;;5086986;28;20355;-70
2022/04/08 03:48:06;;;;;;;4.07;1.40;;;6.00;79.30;;;;;;5088902;28;20063;-70
2022/04/08 03:50:32;;;;;;;4.45;1.50;;;6.00;79.40;;;;;;5088050;28;20077;-69
2022/04/08 03:52:57;;;;;;;3.53;1.30;;;6.00;79.40;;;;;;5088128;28;20024;-69
2022/04/08 03:55:23;;;;;;;4.75;1.52;;;6.00;79.50;;;;;;5088678;28;20027;-69
2022/04/08 03:57:48;;;;;;;5.30;1.77;;;6.00;79.50;;;;;;5090404;28;20106;-69
2022/04/08 04:00:14;;;;;;;3.85;1.40;;;6.00;79.40;;;;;;5097646;28;20031;-70
2022/04/08 04:02:40;;;;;;;2.85;1.40;;;6.00;79.50;;;;;;5090465;28;20030;-70
2022/04/08 04:05:06;;;;;;;5.40;1.60;;;6.00;79.50;;;;;;5087887;28;20089;-70
2022/04/08 04:07:35;;;;;;;5.07;1.58;;;5.90;79.50;;;;;;5090768;28;20035;-70
2022/04/08 04:10:00;;;;;;;5.05;1.33;;;5.90;79.60;;;;;;5084885;28;20372;-70
2022/04/08 04:12:29;;;;;;;2.25;1.13;;;5.90;79.70;;;;;;5090116;28;20032;-71
2022/04/08 04:14:55;;;;;;;5.95;1.40;;;5.90;79.70;;;;;;5085340;28;20474;-70
2022/04/08 04:17:21;;;;;;;5.55;1.40;;;5.80;79.70;;;;;;5088553;28;20015;-70
2022/04/08 04:19:47;;;;;;;5.15;1.35;;;5.80;79.70;;;;;;5083066;28;20027;-71
2022/04/08 04:22:13;;;;;;;4.63;1.50;;;5.80;79.80;;;;;;5089819;28;20020;-71
2022/04/08 04:24:38;;;;;;;5.22;1.60;;;5.80;79.90;;;;;;5086101;28;20019;-70
2022/04/08 04:27:04;;;;;;;4.07;1.40;;;5.70;79.80;;;;;;5099526;28;20150;-70
2022/04/08 04:29:30;;;;;;;2.85;1.50;;;5.70;80.00;;;;;;5086336;28;20508;-69
2022/04/08 04:31:56;;;;;;;4.63;1.50;;;5.70;80.10;;;;;;5085847;28;20031;-69
2022/04/08 04:34:23;;;;;;;6.65;1.70;;;5.60;80.10;;;;;;5088266;28;20435;-70
2022/04/08 04:36:49;;;;;;;4.38;1.50;;;5.60;80.30;;;;;;5087208;28;20028;-70
2022/04/08 04:39:14;;;;;;;5.63;1.80;;;5.60;80.40;;;;;;5086566;28;20162;-70
2022/04/08 04:41:39;;;;;;;5.30;1.30;;;5.50;80.50;;;;;;5093481;28;20027;-70
2022/04/08 04:44:05;;;;;;;4.05;1.35;;;5.50;80.50;;;;;;5087713;28;20023;-71
2022/04/08 04:46:31;;;;;;;4.05;1.60;;;5.60;80.60;;;;;;5086505;28;20058;-71
2022/04/08 04:48:56;;;;;;;5.18;1.42;;;5.50;80.60;;;;;;5088197;28;20024;-71
2022/04/08 04:51:22;;;;;;;5.38;1.42;;;5.50;80.70;;;;;;5090072;28;20997;-71
2022/04/08 04:53:48;;;;;;;3.50;1.20;;;5.50;80.80;;;;;;5091533;28;20059;-72
2022/04/08 04:56:13;;;;;;;3.75;1.42;;;5.40;80.80;;;;;;5084635;28;20037;-71
2022/04/08 04:58:39;;;;;;;5.15;1.50;;;5.50;80.90;;;;;;5089004;28;20032;-70
2022/04/08 05:01:04;;;;;;;8.63;2.28;;;5.50;80.90;;;;;;5079863;28;20024;-71
2022/04/08 05:03:30;;;;;;;5.22;1.45;;;5.40;81.00;;;;;;5088394;28;20019;-71
2022/04/08 05:05:55;;;;;;;5.25;1.90;;;5.40;81.00;;;;;;5093480;28;20537;-71
2022/04/08 05:08:21;;;;;;;2.80;1.27;;;5.40;81.10;;;;;;5089020;28;20016;-71
2022/04/08 05:10:47;;;;;;;4.30;1.77;;;5.40;81.10;;;;;;5090229;28;20035;-71
2022/04/08 05:13:13;;;;;;;5.63;1.65;;;5.40;81.20;;;;;;5091364;28;20051;-71
2022/04/08 05:15:42;;;;;;;5.03;1.70;;;5.30;81.20;;;;;;5091415;28;20121;-71
2022/04/08 05:18:09;;;;;;;5.82;1.88;;;5.30;81.40;;;;;;5107881;28;20549;-70
2022/04/08 05:20:35;;;;;;;5.03;2.05;;;5.30;81.50;;;;;;5092566;28;20042;-71
2022/04/08 05:23:01;;;;;;;7.88;2.15;;;5.30;81.50;;;;;;5093734;28;20012;-71
2022/04/08 05:25:26;;;;;;;6.78;2.08;;;5.40;81.50;;;;;;5091482;28;20028;-70
2022/04/08 05:27:53;;;;;;;5.38;2.00;;;5.40;81.50;;;;;;5084961;28;20066;-70
2022/04/08 05:30:19;;;;;;;6.57;2.15;;;5.40;81.50;;;;;;5091455;28;20024;-70
2022/04/08 05:32:48;;;;;;;7.88;2.28;;;5.50;81.50;;;;;;5086948;28;20119;-71
2022/04/08 05:35:15;;;;;;;6.80;2.50;;;5.60;81.40;;;;;;5091979;28;20465;-71
2022/04/08 05:37:45;;;;;;;7.80;1.95;;;5.80;81.20;;;;;;5096488;28;20024;-70
2022/04/08 05:40:18;;;;;;;6.85;2.10;;;6.10;80.80;;;;;;5108848;28;20051;-72
2022/04/08 05:42:45;;;;;;;5.57;1.92;;;6.40;80.10;;;;;;5094357;28;20087;-70
2022/04/08 05:45:21;;;;;;;5.30;1.88;;;6.70;79.20;;;;;;5083957;28;20024;-71
2022/04/08 05:47:47;;;;;;;7.30;2.63;;;6.70;78.50;;;;;;5087718;28;20020;-71
2022/04/08 05:50:14;;;;;;;5.47;2.10;;;6.70;78.30;;;;;;5088635;28;20074;-70
2022/04/08 05:52:44;;;;;;;5.82;2.00;;;6.70;78.20;;;;;;5093219;28;20028;-70
2022/04/08 05:55:09;;;;;;;7.85;2.58;;;6.50;78.20;;;;;;5087841;28;20430;-70
2022/04/08 05:57:36;;;;;;;6.28;2.50;;;6.50;78.40;;;;;;5083031;28;20020;-71
2022/04/08 06:00:03;;;;;;;5.00;1.70;;;6.70;78.90;;;;;;5091122;28;20036;-71
2022/04/08 06:02:29;;;;;;;5.55;1.60;;;7.40;78.60;;;;;;5088766;28;20034;-70
2022/04/08 06:04:54;;;;;;;4.85;1.90;;;8.30;76.90;;;;;;5084286;28;20029;-70
2022/04/08 06:07:23;;;;;;;5.10;2.03;;;9.10;74.40;;;;;;5090085;28;20340;-71
2022/04/08 06:09:49;;;;;;;6.00;1.67;;;9.70;72.40;;;;;;5089725;28;20371;-72
2022/04/08 06:12:14;;;;;;;4.35;2.03;;;10.30;71.00;;;;;;5090193;28;20035;-70
2022/04/08 06:14:40;;;;;;;5.07;1.98;;;10.40;69.70;;;;;;5084844;28;20032;-70
2022/04/08 06:17:05;;;;;;;5.50;1.63;;;10.40;69.30;;;;;;5089483;28;20028;-73
2022/04/08 06:19:31;;;;;;;6.40;2.13;;;10.40;69.40;;;;;;5087783;28;20060;-71
2022/04/08 06:21:57;;;;;;;5.95;2.03;;;10.10;68.90;;;;;;5081955;28;20024;-72
2022/04/08 06:24:23;;;;;;;5.22;1.98;;;9.90;69.20;;;;;;5086947;28;20047;-72
2022/04/08 06:26:48;;;;;;;6.80;2.03;;;9.70;69.50;;;;;;5085235;28;20047;-73
2022/04/08 06:29:14;;;;;;;5.07;1.90;;;9.80;70.20;;;;;;5077783;28;20336;-72
2022/04/08 06:31:39;;;;;;;3.42;1.63;;;9.90;69.90;;;;;;5084208;28;20031;-70
2022/04/08 06:34:05;;;;;;;5.28;2.03;;;10.20;69.60;;;;;;5085625;28;20111;-69
2022/04/08 06:36:30;;;;;;;6.60;2.33;;;10.40;68.80;;;;;;5081563;28;20036;-70
2022/04/08 06:38:56;;;;;;;4.50;1.98;;;10.50;68.10;;;;;;5090094;28;20023;-70
2022/04/08 06:41:22;;;;;;;5.63;2.00;;;10.40;67.90;;;;;;5093875;28;20469;-70
2022/04/08 06:43:47;;;;;;;6.72;2.15;;;10.00;68.00;;;;;;5091231;28;20012;-70
2022/04/08 06:46:13;;;;;;;5.45;2.10;;;9.70;68.80;;;;;;5085818;28;20074;-70
2022/04/08 06:48:39;;;;;;;3.70;1.80;;;9.60;69.40;;;;;;5086798;28;20077;-70
2022/04/08 06:51:05;;;;;;;7.38;1.92;;;9.90;69.70;;;;;;5085366;28;20544;-70
2022/04/08 06:53:31;;;;;;;4.38;1.92;;;10.50;68.90;;;;;;5091114;28;20327;-70
2022/04/08 06:55:56;;;;;;;5.78;2.08;;;11.10;67.20;;;;;;5094024;28;20023;-68
2022/04/08 06:58:26;;;;;;;5.03;2.25;;;11.60;65.50;;;;;;5084049;28;20034;-70
2022/04/08 07:00:54;;;;;;;8.80;2.40;;;12.00;64.00;;;;;;5090181;28;20521;-70
2022/04/08 07:03:20;;;;;;;5.38;2.38;;;12.30;63.00;;;;;;5087927;28;20035;-70
2022/04/08 07:05:46;;;;;;;4.13;1.80;;;12.40;62.50;;;;;;5088014;28;20069;-70
2022/04/08 07:08:12;;;;;;;5.82;2.00;;;12.50;62.40;;;;;;5084146;28;20035;-70
2022/04/08 07:10:38;;;;;;;3.67;1.70;;;12.60;61.80;;;;;;5087140;28;20035;-70
2022/04/08 07:13:05;;;;;;;4.57;1.70;;;12.40;61.70;;;;;;5089742;28;20023;-70
2022/04/08 07:15:30;;;;;;;5.68;1.80;;;12.50;62.00;;;;;;5086383;28;20655;-70
2022/04/08 07:17:56;;;;;;;4.50;1.88;;;12.40;61.20;;;;;;5081681;28;20110;-70
2022/04/08 07:20:22;;;;;;;3.63;1.60;;;11.90;61.80;;;;;;5078086;28;20058;-70
2022/04/08 07:22:48;;;;;;;3.50;1.60;;;11.90;62.40;;;;;;5084191;28;20032;-70
2022/04/08 07:25:14;;;;;;;6.45;1.80;;;11.80;62.50;;;;;;5089542;28;20036;-70
2022/04/08 07:27:43;;;;;;;3.95;1.60;;;11.80;62.20;;;;;;5088233;28;20028;-70
2022/04/08 07:30:09;;;;;;;4.70;1.50;;;11.40;62.40;;;;;;5083217;28;20115;-70
2022/04/08 07:32:34;;;;;;;6.25;1.80;;;11.20;63.30;;;;;;5084821;28;20550;-70
2022/04/08 07:35:00;;;;;;;3.75;1.45;;;11.10;64.00;;;;;;5083427;28;20020;-70
2022/04/08 07:37:29;;;;;;;5.63;1.80;;;10.90;64.40;;;;;;5085138;28;20478;-71
2022/04/08 07:39:55;;;;;;;4.90;1.80;;;10.40;65.10;;;;;;5088485;28;20612;-70
2022/04/08 07:42:20;;;;;;;3.30;1.45;;;10.30;66.60;;;;;;5080305;28;20028;-70
2022/04/08 07:44:46;;;;;;;3.92;2.00;;;10.00;66.70;;;;;;5084648;28;20030;-70
2022/04/08 07:47:11;;;;;;;4.38;1.63;;;9.90;67.30;;;;;;5084813;28;20104;-69
2022/04/08 07:49:37;;;;;;;4.60;1.90;;;9.90;67.50;;;;;;5081477;28;20024;-70
2022/04/08 07:52:03;;;;;;;2.80;1.70;;;9.90;67.50;;;;;;5084580;28;20564;-70
2022/04/08 07:54:28;;;;;;;4.13;2.20;;;10.00;67.70;;;;;;5084364;28;20035;-70
2022/04/08 07:56:54;;;;;;;4.78;1.85;;;9.80;67.60;;;;;;5083215;28;20035;-69
2022/04/08 07:59:20;;;;;;;7.28;1.98;;;9.80;68.30;;;;;;5081036;28;20118;-70
2022/04/08 08:01:46;;;;;;;4.60;1.92;;;9.90;67.40;;;;;;5074521;28;20029;-70
2022/04/08 08:04:11;;;;;;;5.65;1.80;;;10.00;67.20;;;;;;5081352;28;20020;-70
2022/04/08 08:06:37;;;;;;;3.55;1.85;;;10.30;66.70;;;;;;5081681;28;20529;-70
2022/04/08 08:09:03;;;;;;;6.43;1.90;;;10.50;66.30;;;;;;5082012;28;20034;-70
2022/04/08 08:11:28;;;;;;;3.47;1.73;;;10.50;66.10;;;;;;5078729;28;20065;-70
2022/04/08 08:13:54;;;;;;;4.25;1.60;;;10.40;66.00;;;;;;5087424;28;20038;-69
2022/04/08 08:16:20;;;;;;;5.53;2.08;;;10.30;66.50;;;;;;5085442;28;20012;-69
2022/04/08 08:18:45;;;;;;;3.55;1.60;;;10.10;66.80;;;;;;5085450;28;20035;-70
2022/04/08 08:21:12;;;;;;;4.15;1.77;;;10.00;67.30;;;;;;5088454;28;20479;-69
2022/04/08 08:23:37;;;;;;;3.28;1.60;;;10.00;67.50;;;;;;5075534;28;20471;-70
2022/04/08 08:26:03;;;;;;;4.97;2.05;;;10.00;68.20;;;;;;5090319;28;20107;-70
2022/04/08 08:28:29;;;;;;;6.65;1.88;;;9.80;67.30;;;;;;5085467;28;20028;-70
2022/04/08 08:30:55;;;;;;;5.57;2.00;;;9.80;67.80;;;;;;5087989;28;20038;-70
2022/04/08 08:33:20;;;;;;;4.60;1.90;;;9.90;67.70;;;;;;5093501;28;20024;-70
2022/04/08 08:35:47;;;;;;;3.97;2.30;;;9.80;67.40;;;;;;5082004;28;20027;-70
2022/04/08 08:38:12;;;;;;;3.75;1.92;;;9.70;67.40;;;;;;5089471;28;20016;-70
2022/04/08 08:40:43;;;;;;;4.57;1.83;;;9.70;67.40;;;;;;5092409;28;20541;-70
2022/04/08 08:43:09;;;;;;;4.60;2.08;;;9.70;67.50;;;;;;5078225;28;20062;-70
2022/04/08 08:45:35;;;;;;;4.20;1.80;;;9.70;67.20;;;;;;5082031;28;20021;-70
2022/04/08 08:48:03;;;;;;;4.45;1.75;;;9.70;67.40;;;;;;5086057;28;20027;-70
2022/04/08 08:50:29;;;;;;;7.30;2.00;;;9.70;67.60;;;;;;5082665;28;20078;-69
2022/04/08 08:52:56;;;;;;;3.20;1.92;;;9.70;67.30;;;;;;5088357;28;20103;-70
2022/04/08 08:55:21;;;;;;;4.90;1.80;;;9.70;67.20;;;;;;5088677;28;20020;-70
2022/04/08 08:57:48;;;;;;;3.78;1.63;;;9.70;67.00;;;;;;5088546;28;20043;-70
2022/04/08 09:00:16;;;;;;;4.40;1.83;;;9.70;67.20;;;;;;5090496;28;20059;-69
2022/04/08 09:02:48;;;;;;;4.47;1.75;;;9.80;67.20;;;;;;5091946;28;20397;-70
2022/04/08 09:05:19;;;;;;;3.70;1.80;;;9.80;67.20;;;;;;5084851;28;20700;-69
2022/04/08 09:07:59;;;;;;;6.03;1.73;;;9.80;67.00;;;;;;5092347;28;20042;-69
2022/04/08 09:10:25;;;;;;;5.20;1.80;;;9.80;66.90;;;;;;5084263;28;20058;-69
2022/04/08 09:12:58;;;;;;;6.90;2.20;;;9.90;67.70;;;;;;5097765;28;20023;-69
2022/04/08 09:15:24;;;;;;;5.18;2.03;;;9.80;66.50;;;;;;5090574;28;20050;-69
2022/04/08 09:17:50;;;;;;;4.50;2.03;;;9.80;66.60;;;;;;5091588;28;20510;-69
2022/04/08 09:20:16;;;;;;;5.32;1.98;;;9.90;66.80;;;;;;5084193;28;20032;-69
2022/04/08 09:22:43;;;;;;;5.45;1.90;;;10.00;66.50;;;;;;5095237;28;20027;-70
2022/04/08 09:25:12;;;;;;;5.65;2.05;;;10.10;66.50;;;;;;5085018;28;20096;-70
2022/04/08 09:27:40;;;;;;;5.43;2.20;;;10.10;66.20;;;;;;5085907;28;20078;-70
2022/04/08 09:30:08;;;;;;;5.63;2.63;;;10.10;66.40;;;;;;5086639;28;20059;-69
2022/04/08 09:32:34;;;;;;;5.05;2.40;;;10.00;65.80;;;;;;5092353;28;20028;-70
2022/04/08 09:35:00;;;;;;;6.72;1.90;;;10.00;66.10;;;;;;5087451;28;20019;-69
2022/04/08 09:37:26;;;;;;;3.58;1.60;;;10.00;66.50;;;;;;5085387;28;20028;-69
2022/04/08 09:39:55;;;;;;;6.80;2.10;;;10.10;66.80;;;;;;5085568;28;20134;-69
2022/04/08 09:42:22;;;;;;;5.57;2.17;;;10.20;66.70;;;;;;5089509;28;20009;-70
2022/04/08 09:44:47;;;;;;;4.28;2.13;;;10.30;66.60;;;;;;5087717;28;20385;-70
2022/04/08 09:47:14;;;;;;;6.55;2.08;;;10.40;66.60;;;;;;5084836;28;20150;-70
2022/04/08 09:49:39;;;;;;;6.82;2.40;;;10.40;66.50;;;;;;5085113;28;20411;-70
2022/04/08 09:52:07;;;;;;;5.78;1.90;;;10.50;65.90;;;;;;5087968;28;20021;-70
2022/04/08 09:54:33;;;;;;;6.28;2.13;;;10.40;65.50;;;;;;5081649;28;20028;-70
2022/04/08 09:57:00;;;;;;;5.07;2.00;;;10.30;65.20;;;;;;5091978;28;20020;-70
2022/04/08 09:59:32;;;;;;;4.07;2.10;;;10.30;65.70;;;;;;5091220;28;20020;-69
2022/04/08 10:02:01;;;;;;;;;;;10.30;65.40;;;;;;5092920;28;20020;-70
2022/04/08 10:04:28;;;;;;;3.58;1.70;;;10.30;65.50;;;;;;5084927;28;19962;-70
2022/04/08 10:06:55;;;;;;;3.97;1.95;;;10.30;65.40;;;;;;5089185;28;20020;-70
2022/04/08 10:09:24;;;;;;;3.95;1.60;;;10.30;65.30;;;;;;5093345;28;20032;-70
2022/04/08 10:11:59;;;;;;;5.53;1.70;;;10.30;65.40;;;;;;5081961;28;20052;-71
2022/04/08 10:14:35;;;;;;;4.30;1.80;;;10.40;65.30;;;;;;5082621;28;20033;-70
2022/04/08 10:17:02;;;;;;;3.38;1.70;;;10.40;65.30;;;;;;5082124;28;20042;-70
2022/04/08 10:19:31;;;;;;;4.28;1.70;;;10.50;65.30;;;;;;5077084;28;21541;-70
2022/04/08 10:21:56;;;;;;;4.40;2.10;;;10.60;65.10;;;;;;5084667;28;20067;-70
2022/04/08 10:24:24;;;;;;;5.05;1.80;;;10.60;64.70;;;;;;5077126;28;20070;-70
2022/04/08 10:27:08;;;;;;;8.48;2.60;;;10.50;64.60;;;;;;5082768;28;20044;-69
2022/04/08 10:29:34;;;;;;;5.50;2.03;;;10.50;64.30;;;;;;5077240;28;20562;-69
2022/04/08 10:32:12;;;;;;;4.95;2.05;;;10.50;64.60;;;;;;5056986;28;1024177;-70
2022/04/08 10:34:37;;;;;;;4.75;2.10;;;10.50;64.50;;;;;;5087469;28;20024;-69
2022/04/08 10:37:15;;;;;;;5.00;2.38;;;10.50;64.40;;;;;;5081137;28;20085;-69
2022/04/08 10:39:42;;;;;;;5.60;2.00;;;10.50;64.40;;;;;;5083479;28;20341;-69
2022/04/08 10:42:20;;;;;;;2.90;1.88;;;10.50;64.50;;;;;;5081279;28;20047;-69
2022/04/08 10:44:46;;;;;;;5.20;1.92;;;10.60;64.60;;;;;;5077104;28;20020;-69
2022/04/08 10:47:16;;;;;;;5.57;2.20;;;10.60;64.50;;;;;;5086859;28;20123;-69
2022/04/08 10:49:47;;;;;;;7.05;2.60;;;10.70;64.50;;;;;;5079083;28;20035;-69
2022/04/08 10:52:18;;;;;;;4.80;2.40;;;10.60;64.40;;;;;;5078556;28;20124;-69
2022/04/08 10:54:44;;;;;;;6.63;2.60;;;10.60;64.00;;;;;;5084991;28;20056;-70
2022/04/08 10:57:10;;;;;;;5.25;2.55;;;10.70;63.80;;;;;;5079549;28;20633;-69
2022/04/08 10:59:36;;;;;;;3.05;1.88;;;10.70;63.70;;;;;;5076841;28;20108;-70
2022/04/08 11:02:05;;;;;;;5.85;2.20;;;10.80;64.50;;;;;;5083831;28;20089;-69
2022/04/08 11:04:32;;;;;;;5.35;2.50;;;10.90;63.90;;;;;;5090896;28;20019;-70
2022/04/08 11:07:05;;;;;;;4.40;2.20;;;11.00;63.60;;;;;;5085665;28;20019;-70
2022/04/08 11:09:31;;;;;;;37.30;26.42;;;11.10;63.30;;;;;;5086419;28;20626;-70
2022/04/08 11:11:57;;;;;;;17.58;11.23;;;11.10;63.20;;;;;;5080293;28;20554;-70
2022/04/08 11:14:23;;;;;;;6.97;3.70;;;11.10;63.20;;;;;;5089663;28;20115;-70
2022/04/08 11:16:50;;;;;;;5.85;2.80;;;11.10;62.40;;;;;;5081901;28;20387;-70
2022/04/08 11:19:16;;;;;;;5.18;2.50;;;10.90;62.50;;;;;;5086568;28;20017;-70
2022/04/08 11:21:42;;;;;;;6.50;2.80;;;10.90;62.90;;;;;;5082799;28;20032;-70
2022/04/08 11:24:10;;;;;;;6.18;2.40;;;10.90;63.10;;;;;;5090629;28;20020;-70
2022/04/08 11:26:44;;;;;;;3.40;2.20;;;11.00;63.20;;;;;;5084854;28;20032;-70
2022/04/08 11:29:15;;;;;;;6.65;3.00;;;11.00;63.40;;;;;;5088495;28;20453;-70
2022/04/08 11:31:42;;;;;;;6.20;2.58;;;10.90;63.00;;;;;;5086789;28;20046;-70
2022/04/08 11:34:08;;;;;;;5.25;2.70;;;10.90;63.20;;;;;;5089672;28;20075;-70
2022/04/08 11:36:35;;;;;;;6.07;2.58;;;10.90;63.30;;;;;;5087341;28;20062;-70
2022/04/08 11:39:04;;;;;;;4.57;2.40;;;10.90;63.10;;;;;;5086161;28;20032;-70
2022/04/08 11:41:30;;;;;;;6.55;2.40;;;11.00;63.30;;;;;;5077431;28;20067;-69
2022/04/08 11:43:56;;;;;;;5.35;2.78;;;11.00;63.30;;;;;;5073708;28;20029;-69
2022/04/08 11:46:22;;;;;;;4.95;2.50;;;11.10;63.30;;;;;;5075316;28;20036;-70
2022/04/08 11:48:49;;;;;;;4.05;2.42;;;11.10;63.30;;;;;;5086079;28;20022;-70
2022/04/08 11:51:21;;;;;;;5.20;2.50;;;11.20;63.40;;;;;;5082189;28;20089;-69
2022/04/08 11:53:53;;;;;;;4.72;2.30;;;11.20;63.10;;;;;;5085342;28;20020;-70
2022/04/08 11:56:22;;;;;;;;;;;11.10;63.10;;;;;;5077225;28;20540;-70
2022/04/08 11:59:21;;;;;;;5.30;2.30;;;11.10;63.00;;;;;;5080995;28;19955;-70
2022/04/08 12:01:46;;;;;;;4.22;2.13;;;11.10;63.00;;;;;;5032646;28;20107;-68
2022/04/08 12:04:12;;;;;;;3.33;2.03;;;11.10;63.00;;;;;;5073458;28;20026;-69
2022/04/08 12:06:40;;;;;;;5.30;2.58;;;11.20;63.00;;;;;;5069854;28;20036;-69
2022/04/08 12:09:06;;;;;;;6.47;2.65;;;11.30;62.70;;;;;;5082283;28;20024;-70
2022/04/08 12:11:36;;;;;;;4.53;2.40;;;11.40;62.50;;;;;;5078878;28;20032;-69
2022/04/08 12:14:03;;;;;;;8.50;2.85;;;11.50;61.90;;;;;;5082894;28;20081;-68
2022/04/08 12:16:32;;;;;;;6.50;2.50;;;11.60;61.90;;;;;;5080534;28;20024;-69
2022/04/08 12:18:58;;;;;;;4.65;2.40;;;11.60;61.70;;;;;;5086904;28;20653;-68
2022/04/08 12:21:28;;;;;;;4.72;2.60;;;11.60;61.70;;;;;;5080235;28;20053;-68
2022/04/08 12:23:58;;;;;;;5.32;2.28;;;11.50;61.20;;;;;;5083428;28;20028;-69
2022/04/08 12:26:38;;;;;;;7.50;2.65;;;11.40;61.30;;;;;;5083481;28;20011;-68
2022/04/08 12:29:08;;;;;;;6.25;2.63;;;11.40;61.50;;;;;;5087071;28;20449;-68
2022/04/08 12:31:46;;;;;;;4.38;2.20;;;11.40;61.40;;;;;;5084368;28;20036;-68
2022/04/08 12:34:12;;;;;;;4.22;2.50;;;11.30;61.60;;;;;;5087438;28;20630;-69
2022/04/08 12:36:38;;;;;;;2.35;1.70;;;11.40;61.40;;;;;;5075801;28;20028;-68
2022/04/08 12:39:04;;;;;;;6.13;2.38;;;11.50;61.80;;;;;;5078727;28;20458;-68
2022/04/08 12:41:29;;;;;;;4.55;2.60;;;11.50;61.80;;;;;;5080887;28;20023;-68
2022/04/08 12:43:57;;;;;;;7.97;3.95;;;11.60;61.80;;;;;;5078715;28;21441;-69
2022/04/08 12:46:23;;;;;;;5.55;3.00;;;11.50;61.70;;;;;;5075365;28;20375;-69
2022/04/08 12:48:49;;;;;;;4.75;2.92;;;11.50;62.00;;;;;;5075658;28;20028;-70
2022/04/08 12:51:14;;;;;;;3.83;2.40;;;11.60;62.20;;;;;;5080617;28;20029;-68